sensor_id;sensor_type;location;lat;lon;timestamp;P1;durP1;ratioP1;P2;durP2;ratioP2
58752;SDS011;44525;46.052;13.610;2024-02-23T00:02:19;7.72;;;4.13;;
58752;SDS011;44525;46.052;13.610;2024-02-23T00:04:45;11.27;;;4.68;;
58752;SDS011;44525;46.052;13.610;2024-02-23T00:07:10;8.98;;;4.18;;
58752;SDS011;44525;46.052;13.610;2024-02-23T00:09:36;10.23;;;4.13;;
58752;SDS011;44525;46.052;13.610;2024-02-23T00:12:02;8.57;;;3.75;;
58752;SDS011;44525;46.052;13.610;2024-02-23T00:14:29;5.10;;;3.33;;
58752;SDS011;44525;46.052;13.610;2024-02-23T00:17:00;6.60;;;3.60;;
58752;SDS011;44525;46.052;13.610;2024-02-23T00:19:26;6.97;;;3.92;;
58752;SDS011;44525;46.052;13.610;2024-02-23T00:21:52;5.68;;;3.53;;
58752;SDS011;44525;46.052;13.610;2024-02-23T00:24:18;7.82;;;3.47;;
58752;SDS011;44525;46.052;13.610;2024-02-23T00:26:45;4.50;;;3.00;;
58752;SDS011;44525;46.052;13.610;2024-02-23T00:29:11;8.23;;;3.35;;
58752;SDS011;44525;46.052;13.610;2024-02-23T00:31:40;6.47;;;3.72;;
58752;SDS011;44525;46.052;13.610;2024-02-23T00:34:10;5.70;;;3.47;;
58752;SDS011;44525;46.052;13.610;2024-02-23T00:36:38;6.68;;;3.30;;
58752;SDS011;44525;46.052;13.610;2024-02-23T00:39:04;5.78;;;3.80;;
58752;SDS011;44525;46.052;13.610;2024-02-23T00:41:29;7.28;;;3.72;;
58752;SDS011;44525;46.052;13.610;2024-02-23T00:43:55;6.18;;;3.85;;
58752;SDS011;44525;46.052;13.610;2024-02-23T00:46:20;7.68;;;3.80;;
58752;SDS011;44525;46.052;13.610;2024-02-23T00:48:46;7.15;;;3.58;;
58752;SDS011;44525;46.052;13.610;2024-02-23T00:51:12;6.75;;;3.60;;
58752;SDS011;44525;46.052;13.610;2024-02-23T00:53:37;4.93;;;3.30;;
58752;SDS011;44525;46.052;13.610;2024-02-23T00:56:03;8.20;;;4.20;;
58752;SDS011;44525;46.052;13.610;2024-02-23T00:58:28;11.40;;;4.35;;
58752;SDS011;44525;46.052;13.610;2024-02-23T01:00:54;6.35;;;3.83;;
58752;SDS011;44525;46.052;13.610;2024-02-23T01:03:20;7.45;;;3.85;;
58752;SDS011;44525;46.052;13.610;2024-02-23T01:05:45;6.32;;;3.47;;
58752;SDS011;44525;46.052;13.610;2024-02-23T01:08:11;7.45;;;3.90;;
58752;SDS011;44525;46.052;13.610;2024-02-23T01:10:36;8.05;;;4.13;;
58752;SDS011;44525;46.052;13.610;2024-02-23T01:13:02;7.97;;;4.40;;
58752;SDS011;44525;46.052;13.610;2024-02-23T01:15:27;9.85;;;4.75;;
58752;SDS011;44525;46.052;13.610;2024-02-23T01:17:52;7.15;;;4.30;;
58752;SDS011;44525;46.052;13.610;2024-02-23T01:20:18;7.10;;;4.00;;
58752;SDS011;44525;46.052;13.610;2024-02-23T01:22:43;8.65;;;4.38;;
58752;SDS011;44525;46.052;13.610;2024-02-23T01:25:08;7.18;;;4.35;;
58752;SDS011;44525;46.052;13.610;2024-02-23T01:27:34;10.38;;;3.88;;
58752;SDS011;44525;46.052;13.610;2024-02-23T01:29:59;7.45;;;4.22;;
58752;SDS011;44525;46.052;13.610;2024-02-23T01:32:25;7.90;;;4.57;;
58752;SDS011;44525;46.052;13.610;2024-02-23T01:34:50;5.75;;;4.13;;
58752;SDS011;44525;46.052;13.610;2024-02-23T01:37:16;6.57;;;4.25;;
58752;SDS011;44525;46.052;13.610;2024-02-23T01:39:41;7.57;;;4.13;;
58752;SDS011;44525;46.052;13.610;2024-02-23T01:42:07;6.63;;;4.25;;
58752;SDS011;44525;46.052;13.610;2024-02-23T01:44:33;8.65;;;4.22;;
58752;SDS011;44525;46.052;13.610;2024-02-23T01:46:58;8.32;;;4.50;;
58752;SDS011;44525;46.052;13.610;2024-02-23T01:49:24;7.03;;;4.03;;
58752;SDS011;44525;46.052;13.610;2024-02-23T01:51:55;7.82;;;4.45;;
58752;SDS011;44525;46.052;13.610;2024-02-23T01:54:21;9.05;;;4.43;;
58752;SDS011;44525;46.052;13.610;2024-02-23T01:56:47;10.18;;;4.15;;
58752;SDS011;44525;46.052;13.610;2024-02-23T01:59:13;8.45;;;4.47;;
58752;SDS011;44525;46.052;13.610;2024-02-23T02:01:38;9.85;;;4.22;;
58752;SDS011;44525;46.052;13.610;2024-02-23T02:04:04;9.10;;;4.40;;
58752;SDS011;44525;46.052;13.610;2024-02-23T02:06:29;8.52;;;4.00;;
58752;SDS011;44525;46.052;13.610;2024-02-23T02:08:55;7.65;;;4.35;;
58752;SDS011;44525;46.052;13.610;2024-02-23T02:11:20;6.78;;;4.35;;
58752;SDS011;44525;46.052;13.610;2024-02-23T02:13:46;10.48;;;4.95;;
58752;SDS011;44525;46.052;13.610;2024-02-23T02:16:11;7.50;;;4.45;;
58752;SDS011;44525;46.052;13.610;2024-02-23T02:18:37;9.88;;;4.75;;
58752;SDS011;44525;46.052;13.610;2024-02-23T02:21:02;6.72;;;4.00;;
58752;SDS011;44525;46.052;13.610;2024-02-23T02:23:28;9.40;;;4.57;;
58752;SDS011;44525;46.052;13.610;2024-02-23T02:25:56;8.30;;;4.30;;
58752;SDS011;44525;46.052;13.610;2024-02-23T02:28:23;6.70;;;4.45;;
58752;SDS011;44525;46.052;13.610;2024-02-23T02:30:50;8.05;;;4.60;;
58752;SDS011;44525;46.052;13.610;2024-02-23T02:33:16;8.13;;;4.20;;
58752;SDS011;44525;46.052;13.610;2024-02-23T02:35:42;7.72;;;4.03;;
58752;SDS011;44525;46.052;13.610;2024-02-23T02:38:07;7.95;;;4.00;;
58752;SDS011;44525;46.052;13.610;2024-02-23T02:40:33;7.38;;;4.45;;
58752;SDS011;44525;46.052;13.610;2024-02-23T02:42:58;8.60;;;4.63;;
58752;SDS011;44525;46.052;13.610;2024-02-23T02:45:24;7.15;;;4.32;;
58752;SDS011;44525;46.052;13.610;2024-02-23T02:47:49;10.38;;;4.28;;
58752;SDS011;44525;46.052;13.610;2024-02-23T02:50:15;8.15;;;4.55;;
58752;SDS011;44525;46.052;13.610;2024-02-23T02:52:40;7.57;;;4.20;;
58752;SDS011;44525;46.052;13.610;2024-02-23T02:55:06;8.38;;;4.00;;
58752;SDS011;44525;46.052;13.610;2024-02-23T02:57:32;5.63;;;4.10;;
58752;SDS011;44525;46.052;13.610;2024-02-23T02:59:57;7.50;;;3.88;;
58752;SDS011;44525;46.052;13.610;2024-02-23T03:02:22;8.27;;;4.03;;
58752;SDS011;44525;46.052;13.610;2024-02-23T03:04:49;8.13;;;4.40;;
58752;SDS011;44525;46.052;13.610;2024-02-23T03:07:15;8.82;;;5.00;;
58752;SDS011;44525;46.052;13.610;2024-02-23T03:09:41;7.18;;;4.78;;
58752;SDS011;44525;46.052;13.610;2024-02-23T03:12:07;9.00;;;4.60;;
58752;SDS011;44525;46.052;13.610;2024-02-23T03:14:32;10.50;;;4.57;;
58752;SDS011;44525;46.052;13.610;2024-02-23T03:16:59;9.50;;;4.72;;
58752;SDS011;44525;46.052;13.610;2024-02-23T03:19:24;7.10;;;4.30;;
58752;SDS011;44525;46.052;13.610;2024-02-23T03:21:50;9.15;;;4.65;;
58752;SDS011;44525;46.052;13.610;2024-02-23T03:24:16;9.05;;;5.10;;
58752;SDS011;44525;46.052;13.610;2024-02-23T03:26:41;7.57;;;4.20;;
58752;SDS011;44525;46.052;13.610;2024-02-23T03:29:07;6.45;;;4.18;;
58752;SDS011;44525;46.052;13.610;2024-02-23T03:31:34;6.65;;;4.35;;
58752;SDS011;44525;46.052;13.610;2024-02-23T03:33:59;6.22;;;4.43;;
58752;SDS011;44525;46.052;13.610;2024-02-23T03:36:25;8.00;;;5.28;;
58752;SDS011;44525;46.052;13.610;2024-02-23T03:38:51;7.05;;;4.78;;
58752;SDS011;44525;46.052;13.610;2024-02-23T03:41:16;7.10;;;4.75;;
58752;SDS011;44525;46.052;13.610;2024-02-23T03:43:42;8.18;;;4.78;;
58752;SDS011;44525;46.052;13.610;2024-02-23T03:46:07;8.25;;;4.60;;
58752;SDS011;44525;46.052;13.610;2024-02-23T03:48:33;8.23;;;5.00;;
58752;SDS011;44525;46.052;13.610;2024-02-23T03:50:59;6.78;;;4.30;;
58752;SDS011;44525;46.052;13.610;2024-02-23T03:53:24;11.95;;;5.07;;
58752;SDS011;44525;46.052;13.610;2024-02-23T03:55:50;11.98;;;4.90;;
58752;SDS011;44525;46.052;13.610;2024-02-23T03:58:15;6.88;;;4.40;;
58752;SDS011;44525;46.052;13.610;2024-02-23T04:00:40;9.63;;;4.75;;
58752;SDS011;44525;46.052;13.610;2024-02-23T04:03:06;8.35;;;4.68;;
58752;SDS011;44525;46.052;13.610;2024-02-23T04:05:31;7.00;;;4.40;;
58752;SDS011;44525;46.052;13.610;2024-02-23T04:07:57;7.22;;;4.38;;
58752;SDS011;44525;46.052;13.610;2024-02-23T04:10:22;6.55;;;4.40;;
58752;SDS011;44525;46.052;13.610;2024-02-23T04:12:47;8.30;;;4.55;;
58752;SDS011;44525;46.052;13.610;2024-02-23T04:15:13;8.50;;;5.25;;
58752;SDS011;44525;46.052;13.610;2024-02-23T04:17:38;9.70;;;4.90;;
58752;SDS011;44525;46.052;13.610;2024-02-23T04:20:07;9.60;;;5.25;;
58752;SDS011;44525;46.052;13.610;2024-02-23T04:22:34;7.88;;;4.80;;
58752;SDS011;44525;46.052;13.610;2024-02-23T04:25:00;9.50;;;4.88;;
58752;SDS011;44525;46.052;13.610;2024-02-23T04:27:26;9.23;;;5.38;;
58752;SDS011;44525;46.052;13.610;2024-02-23T04:29:51;7.00;;;5.15;;
58752;SDS011;44525;46.052;13.610;2024-02-23T04:32:16;7.63;;;4.60;;
58752;SDS011;44525;46.052;13.610;2024-02-23T04:34:42;8.55;;;5.32;;
58752;SDS011;44525;46.052;13.610;2024-02-23T04:37:07;8.15;;;4.90;;
58752;SDS011;44525;46.052;13.610;2024-02-23T04:39:33;10.18;;;5.30;;
58752;SDS011;44525;46.052;13.610;2024-02-23T04:41:59;7.60;;;5.22;;
58752;SDS011;44525;46.052;13.610;2024-02-23T04:44:24;7.60;;;5.00;;
58752;SDS011;44525;46.052;13.610;2024-02-23T04:46:49;7.97;;;5.38;;
58752;SDS011;44525;46.052;13.610;2024-02-23T04:49:15;8.43;;;4.85;;
58752;SDS011;44525;46.052;13.610;2024-02-23T04:51:40;7.97;;;5.40;;
58752;SDS011;44525;46.052;13.610;2024-02-23T04:54:06;10.95;;;5.53;;
58752;SDS011;44525;46.052;13.610;2024-02-23T04:56:31;10.52;;;5.35;;
58752;SDS011;44525;46.052;13.610;2024-02-23T04:58:58;8.00;;;5.50;;
58752;SDS011;44525;46.052;13.610;2024-02-23T05:01:23;9.05;;;4.93;;
58752;SDS011;44525;46.052;13.610;2024-02-23T05:03:49;9.40;;;5.00;;
58752;SDS011;44525;46.052;13.610;2024-02-23T05:06:14;8.40;;;5.05;;
58752;SDS011;44525;46.052;13.610;2024-02-23T05:08:39;10.45;;;5.40;;
58752;SDS011;44525;46.052;13.610;2024-02-23T05:11:06;7.88;;;5.10;;
58752;SDS011;44525;46.052;13.610;2024-02-23T05:13:31;8.88;;;5.10;;
58752;SDS011;44525;46.052;13.610;2024-02-23T05:15:56;8.73;;;5.57;;
58752;SDS011;44525;46.052;13.610;2024-02-23T05:18:22;8.23;;;5.30;;
58752;SDS011;44525;46.052;13.610;2024-02-23T05:20:47;9.23;;;5.25;;
58752;SDS011;44525;46.052;13.610;2024-02-23T05:23:13;10.95;;;7.18;;
58752;SDS011;44525;46.052;13.610;2024-02-23T05:25:40;12.02;;;8.00;;
58752;SDS011;44525;46.052;13.610;2024-02-23T05:28:06;9.48;;;5.28;;
58752;SDS011;44525;46.052;13.610;2024-02-23T05:30:32;10.98;;;5.25;;
58752;SDS011;44525;46.052;13.610;2024-02-23T05:32:57;9.18;;;5.35;;
58752;SDS011;44525;46.052;13.610;2024-02-23T05:35:23;8.73;;;5.03;;
58752;SDS011;44525;46.052;13.610;2024-02-23T05:37:49;9.70;;;7.32;;
58752;SDS011;44525;46.052;13.610;2024-02-23T05:40:15;7.40;;;4.97;;
58752;SDS011;44525;46.052;13.610;2024-02-23T05:42:41;10.52;;;4.75;;
58752;SDS011;44525;46.052;13.610;2024-02-23T05:45:07;8.82;;;5.03;;
58752;SDS011;44525;46.052;13.610;2024-02-23T05:47:34;9.15;;;4.38;;
58752;SDS011;44525;46.052;13.610;2024-02-23T05:50:01;9.43;;;4.70;;
58752;SDS011;44525;46.052;13.610;2024-02-23T05:52:27;7.35;;;5.70;;
58752;SDS011;44525;46.052;13.610;2024-02-23T05:54:53;10.00;;;5.22;;
58752;SDS011;44525;46.052;13.610;2024-02-23T05:57:20;8.10;;;4.82;;
58752;SDS011;44525;46.052;13.610;2024-02-23T05:59:46;9.27;;;5.68;;
58752;SDS011;44525;46.052;13.610;2024-02-23T06:02:12;11.77;;;5.65;;
58752;SDS011;44525;46.052;13.610;2024-02-23T06:04:39;8.00;;;4.80;;
58752;SDS011;44525;46.052;13.610;2024-02-23T06:07:05;9.65;;;4.70;;
58752;SDS011;44525;46.052;13.610;2024-02-23T06:09:30;8.10;;;5.22;;
58752;SDS011;44525;46.052;13.610;2024-02-23T06:11:56;7.03;;;4.75;;
58752;SDS011;44525;46.052;13.610;2024-02-23T06:14:21;9.73;;;5.22;;
58752;SDS011;44525;46.052;13.610;2024-02-23T06:16:48;7.05;;;5.03;;
58752;SDS011;44525;46.052;13.610;2024-02-23T06:19:14;8.88;;;5.18;;
58752;SDS011;44525;46.052;13.610;2024-02-23T06:21:40;8.75;;;4.22;;
58752;SDS011;44525;46.052;13.610;2024-02-23T06:24:06;9.65;;;5.07;;
58752;SDS011;44525;46.052;13.610;2024-02-23T06:26:33;9.15;;;5.40;;
58752;SDS011;44525;46.052;13.610;2024-02-23T06:28:59;8.93;;;5.10;;
58752;SDS011;44525;46.052;13.610;2024-02-23T06:31:24;10.55;;;6.20;;
58752;SDS011;44525;46.052;13.610;2024-02-23T06:33:50;9.70;;;6.50;;
58752;SDS011;44525;46.052;13.610;2024-02-23T06:36:16;9.88;;;6.50;;
58752;SDS011;44525;46.052;13.610;2024-02-23T06:38:43;11.45;;;7.13;;
58752;SDS011;44525;46.052;13.610;2024-02-23T06:41:09;16.27;;;10.20;;
58752;SDS011;44525;46.052;13.610;2024-02-23T06:43:36;23.15;;;15.45;;
58752;SDS011;44525;46.052;13.610;2024-02-23T06:46:08;23.73;;;14.40;;
58752;SDS011;44525;46.052;13.610;2024-02-23T06:48:34;26.73;;;15.98;;
58752;SDS011;44525;46.052;13.610;2024-02-23T06:51:00;26.17;;;15.82;;
58752;SDS011;44525;46.052;13.610;2024-02-23T06:53:26;16.48;;;10.45;;
58752;SDS011;44525;46.052;13.610;2024-02-23T06:55:51;18.92;;;11.40;;
58752;SDS011;44525;46.052;13.610;2024-02-23T06:58:16;16.88;;;11.30;;
58752;SDS011;44525;46.052;13.610;2024-02-23T07:00:43;17.63;;;12.50;;
58752;SDS011;44525;46.052;13.610;2024-02-23T07:03:08;16.13;;;11.63;;
58752;SDS011;44525;46.052;13.610;2024-02-23T07:05:34;20.90;;;13.20;;
58752;SDS011;44525;46.052;13.610;2024-02-23T07:08:00;18.88;;;13.35;;
58752;SDS011;44525;46.052;13.610;2024-02-23T07:10:26;22.17;;;14.40;;
58752;SDS011;44525;46.052;13.610;2024-02-23T07:12:52;20.38;;;14.02;;
58752;SDS011;44525;46.052;13.610;2024-02-23T07:15:18;23.67;;;14.63;;
58752;SDS011;44525;46.052;13.610;2024-02-23T07:17:45;19.00;;;13.82;;
58752;SDS011;44525;46.052;13.610;2024-02-23T07:20:10;24.20;;;15.10;;
58752;SDS011;44525;46.052;13.610;2024-02-23T07:22:36;22.90;;;13.90;;
58752;SDS011;44525;46.052;13.610;2024-02-23T07:25:01;23.20;;;14.75;;
58752;SDS011;44525;46.052;13.610;2024-02-23T07:27:29;19.23;;;14.13;;
58752;SDS011;44525;46.052;13.610;2024-02-23T07:29:55;17.00;;;13.48;;
58752;SDS011;44525;46.052;13.610;2024-02-23T07:32:21;18.13;;;13.25;;
58752;SDS011;44525;46.052;13.610;2024-02-23T07:34:46;18.05;;;13.32;;
58752;SDS011;44525;46.052;13.610;2024-02-23T07:37:12;20.52;;;15.55;;
58752;SDS011;44525;46.052;13.610;2024-02-23T07:39:37;33.97;;;25.60;;
58752;SDS011;44525;46.052;13.610;2024-02-23T07:42:03;34.53;;;23.63;;
58752;SDS011;44525;46.052;13.610;2024-02-23T07:44:28;31.65;;;21.92;;
58752;SDS011;44525;46.052;13.610;2024-02-23T07:46:53;33.65;;;26.05;;
58752;SDS011;44525;46.052;13.610;2024-02-23T07:49:20;34.50;;;23.58;;
58752;SDS011;44525;46.052;13.610;2024-02-23T07:51:47;28.45;;;21.60;;
58752;SDS011;44525;46.052;13.610;2024-02-23T07:54:12;28.45;;;20.70;;
58752;SDS011;44525;46.052;13.610;2024-02-23T07:56:38;29.58;;;21.83;;
58752;SDS011;44525;46.052;13.610;2024-02-23T07:59:03;27.27;;;18.58;;
58752;SDS011;44525;46.052;13.610;2024-02-23T08:01:29;25.13;;;16.80;;
58752;SDS011;44525;46.052;13.610;2024-02-23T08:03:54;26.80;;;20.80;;
58752;SDS011;44525;46.052;13.610;2024-02-23T08:06:20;21.80;;;16.20;;
58752;SDS011;44525;46.052;13.610;2024-02-23T08:08:46;22.92;;;18.63;;
58752;SDS011;44525;46.052;13.610;2024-02-23T08:11:11;26.90;;;18.65;;
58752;SDS011;44525;46.052;13.610;2024-02-23T08:13:37;20.05;;;15.68;;
58752;SDS011;44525;46.052;13.610;2024-02-23T08:16:02;21.50;;;14.95;;
58752;SDS011;44525;46.052;13.610;2024-02-23T08:18:28;24.58;;;17.27;;
58752;SDS011;44525;46.052;13.610;2024-02-23T08:20:54;18.73;;;13.73;;
58752;SDS011;44525;46.052;13.610;2024-02-23T08:23:19;19.58;;;13.00;;
58752;SDS011;44525;46.052;13.610;2024-02-23T08:25:45;17.70;;;13.35;;
58752;SDS011;44525;46.052;13.610;2024-02-23T08:28:12;19.15;;;14.05;;
58752;SDS011;44525;46.052;13.610;2024-02-23T08:30:37;21.50;;;15.77;;
58752;SDS011;44525;46.052;13.610;2024-02-23T08:33:03;40.72;;;31.23;;
58752;SDS011;44525;46.052;13.610;2024-02-23T08:35:28;23.20;;;14.90;;
58752;SDS011;44525;46.052;13.610;2024-02-23T08:37:53;20.63;;;15.43;;
58752;SDS011;44525;46.052;13.610;2024-02-23T08:40:19;21.52;;;15.63;;
58752;SDS011;44525;46.052;13.610;2024-02-23T08:42:44;18.80;;;14.05;;
58752;SDS011;44525;46.052;13.610;2024-02-23T08:45:11;20.23;;;14.73;;
58752;SDS011;44525;46.052;13.610;2024-02-23T08:47:38;20.42;;;12.77;;
58752;SDS011;44525;46.052;13.610;2024-02-23T08:50:04;21.85;;;15.07;;
58752;SDS011;44525;46.052;13.610;2024-02-23T08:52:30;50.95;;;42.35;;
58752;SDS011;44525;46.052;13.610;2024-02-23T08:54:56;34.72;;;28.55;;
58752;SDS011;44525;46.052;13.610;2024-02-23T08:57:21;24.10;;;18.15;;
58752;SDS011;44525;46.052;13.610;2024-02-23T08:59:48;36.03;;;31.45;;
58752;SDS011;44525;46.052;13.610;2024-02-23T09:02:14;15.70;;;13.25;;
58752;SDS011;44525;46.052;13.610;2024-02-23T09:04:40;19.73;;;13.77;;
58752;SDS011;44525;46.052;13.610;2024-02-23T09:07:06;14.02;;;10.07;;
58752;SDS011;44525;46.052;13.610;2024-02-23T09:09:31;17.65;;;10.00;;
58752;SDS011;44525;46.052;13.610;2024-02-23T09:11:56;15.30;;;9.90;;
58752;SDS011;44525;46.052;13.610;2024-02-23T09:14:22;17.80;;;10.18;;
58752;SDS011;44525;46.052;13.610;2024-02-23T09:16:47;13.07;;;9.65;;
58752;SDS011;44525;46.052;13.610;2024-02-23T09:19:15;14.15;;;10.38;;
58752;SDS011;44525;46.052;13.610;2024-02-23T09:21:43;17.08;;;12.10;;
58752;SDS011;44525;46.052;13.610;2024-02-23T09:24:10;21.27;;;14.88;;
58752;SDS011;44525;46.052;13.610;2024-02-23T09:26:35;17.48;;;12.82;;
58752;SDS011;44525;46.052;13.610;2024-02-23T09:29:01;22.48;;;13.98;;
58752;SDS011;44525;46.052;13.610;2024-02-23T09:31:26;29.77;;;18.40;;
58752;SDS011;44525;46.052;13.610;2024-02-23T09:33:53;26.23;;;17.00;;
58752;SDS011;44525;46.052;13.610;2024-02-23T09:36:20;31.65;;;22.05;;
58752;SDS011;44525;46.052;13.610;2024-02-23T09:38:45;23.00;;;15.43;;
58752;SDS011;44525;46.052;13.610;2024-02-23T09:41:15;30.95;;;19.58;;
58752;SDS011;44525;46.052;13.610;2024-02-23T09:43:46;39.53;;;27.67;;
58752;SDS011;44525;46.052;13.610;2024-02-23T09:46:13;28.38;;;18.48;;
58752;SDS011;44525;46.052;13.610;2024-02-23T09:48:40;32.78;;;19.77;;
58752;SDS011;44525;46.052;13.610;2024-02-23T09:51:07;30.15;;;17.98;;
58752;SDS011;44525;46.052;13.610;2024-02-23T09:53:34;23.70;;;17.33;;
58752;SDS011;44525;46.052;13.610;2024-02-23T09:56:02;21.50;;;14.45;;
58752;SDS011;44525;46.052;13.610;2024-02-23T09:58:29;23.08;;;16.85;;
58752;SDS011;44525;46.052;13.610;2024-02-23T10:00:57;17.05;;;10.75;;
58752;SDS011;44525;46.052;13.610;2024-02-23T10:03:24;27.23;;;17.25;;
58752;SDS011;44525;46.052;13.610;2024-02-23T10:05:53;26.38;;;17.77;;
58752;SDS011;44525;46.052;13.610;2024-02-23T10:08:19;24.17;;;15.60;;
58752;SDS011;44525;46.052;13.610;2024-02-23T10:10:47;172.35;;;112.18;;
58752;SDS011;44525;46.052;13.610;2024-02-23T10:13:18;35.97;;;22.45;;
58752;SDS011;44525;46.052;13.610;2024-02-23T10:15:45;14.07;;;9.20;;
58752;SDS011;44525;46.052;13.610;2024-02-23T10:18:11;24.80;;;15.88;;
58752;SDS011;44525;46.052;13.610;2024-02-23T10:20:37;16.88;;;10.55;;
58752;SDS011;44525;46.052;13.610;2024-02-23T10:23:03;14.90;;;10.27;;
58752;SDS011;44525;46.052;13.610;2024-02-23T10:25:29;11.40;;;7.05;;
58752;SDS011;44525;46.052;13.610;2024-02-23T10:27:55;38.78;;;27.08;;
58752;SDS011;44525;46.052;13.610;2024-02-23T10:30:20;47.10;;;27.33;;
58752;SDS011;44525;46.052;13.610;2024-02-23T10:32:46;46.03;;;26.67;;
58752;SDS011;44525;46.052;13.610;2024-02-23T10:35:13;54.17;;;33.42;;
58752;SDS011;44525;46.052;13.610;2024-02-23T10:37:44;82.93;;;49.22;;
58752;SDS011;44525;46.052;13.610;2024-02-23T10:40:16;54.83;;;33.53;;
58752;SDS011;44525;46.052;13.610;2024-02-23T10:42:43;32.08;;;20.88;;
58752;SDS011;44525;46.052;13.610;2024-02-23T10:45:16;29.50;;;19.08;;
58752;SDS011;44525;46.052;13.610;2024-02-23T10:47:43;29.73;;;20.13;;
58752;SDS011;44525;46.052;13.610;2024-02-23T10:50:08;34.67;;;22.77;;
58752;SDS011;44525;46.052;13.610;2024-02-23T10:52:34;21.35;;;12.50;;
58752;SDS011;44525;46.052;13.610;2024-02-23T10:55:01;16.65;;;11.45;;
58752;SDS011;44525;46.052;13.610;2024-02-23T10:57:29;44.38;;;31.40;;
58752;SDS011;44525;46.052;13.610;2024-02-23T10:59:56;70.15;;;52.55;;
58752;SDS011;44525;46.052;13.610;2024-02-23T11:02:22;54.83;;;41.95;;
58752;SDS011;44525;46.052;13.610;2024-02-23T11:04:49;52.92;;;36.28;;
58752;SDS011;44525;46.052;13.610;2024-02-23T11:07:16;73.70;;;46.65;;
58752;SDS011;44525;46.052;13.610;2024-02-23T11:09:54;37.13;;;25.17;;
58752;SDS011;44525;46.052;13.610;2024-02-23T11:12:23;30.00;;;19.88;;
58752;SDS011;44525;46.052;13.610;2024-02-23T11:14:50;27.80;;;18.75;;
58752;SDS011;44525;46.052;13.610;2024-02-23T11:17:18;31.15;;;19.63;;
58752;SDS011;44525;46.052;13.610;2024-02-23T11:19:50;24.33;;;16.35;;
58752;SDS011;44525;46.052;13.610;2024-02-23T11:22:20;65.90;;;39.70;;
58752;SDS011;44525;46.052;13.610;2024-02-23T11:24:49;38.27;;;24.20;;
58752;SDS011;44525;46.052;13.610;2024-02-23T11:27:15;21.23;;;12.75;;
58752;SDS011;44525;46.052;13.610;2024-02-23T11:29:43;30.38;;;20.38;;
58752;SDS011;44525;46.052;13.610;2024-02-23T11:32:16;45.45;;;29.05;;
58752;SDS011;44525;46.052;13.610;2024-02-23T11:34:54;26.38;;;18.60;;
58752;SDS011;44525;46.052;13.610;2024-02-23T11:37:23;17.27;;;10.50;;
58752;SDS011;44525;46.052;13.610;2024-02-23T11:39:48;22.25;;;14.75;;
58752;SDS011;44525;46.052;13.610;2024-02-23T11:42:14;22.00;;;15.30;;
58752;SDS011;44525;46.052;13.610;2024-02-23T11:44:40;20.00;;;14.57;;
58752;SDS011;44525;46.052;13.610;2024-02-23T11:47:06;22.38;;;15.77;;
58752;SDS011;44525;46.052;13.610;2024-02-23T11:49:32;18.17;;;12.98;;
58752;SDS011;44525;46.052;13.610;2024-02-23T11:51:58;20.52;;;13.60;;
58752;SDS011;44525;46.052;13.610;2024-02-23T11:54:24;22.30;;;14.80;;
58752;SDS011;44525;46.052;13.610;2024-02-23T11:56:49;18.67;;;12.15;;
58752;SDS011;44525;46.052;13.610;2024-02-23T11:59:17;15.65;;;10.00;;
58752;SDS011;44525;46.052;13.610;2024-02-23T12:01:46;16.02;;;13.38;;
58752;SDS011;44525;46.052;13.610;2024-02-23T12:04:15;43.55;;;31.88;;
58752;SDS011;44525;46.052;13.610;2024-02-23T12:06:41;39.78;;;26.58;;
58752;SDS011;44525;46.052;13.610;2024-02-23T12:09:07;36.28;;;25.70;;
58752;SDS011;44525;46.052;13.610;2024-02-23T12:11:33;36.28;;;23.67;;
58752;SDS011;44525;46.052;13.610;2024-02-23T12:14:00;30.08;;;18.85;;
58752;SDS011;44525;46.052;13.610;2024-02-23T12:16:27;29.15;;;19.73;;
58752;SDS011;44525;46.052;13.610;2024-02-23T12:18:55;44.55;;;30.27;;
58752;SDS011;44525;46.052;13.610;2024-02-23T12:21:21;34.90;;;23.85;;
58752;SDS011;44525;46.052;13.610;2024-02-23T12:23:48;58.35;;;36.22;;
58752;SDS011;44525;46.052;13.610;2024-02-23T12:26:16;59.80;;;39.35;;
58752;SDS011;44525;46.052;13.610;2024-02-23T12:28:43;22.17;;;14.40;;
58752;SDS011;44525;46.052;13.610;2024-02-23T12:31:09;30.88;;;20.00;;
58752;SDS011;44525;46.052;13.610;2024-02-23T12:33:35;25.88;;;17.48;;
58752;SDS011;44525;46.052;13.610;2024-02-23T12:36:05;35.08;;;22.98;;
58752;SDS011;44525;46.052;13.610;2024-02-23T12:38:31;24.67;;;17.83;;
58752;SDS011;44525;46.052;13.610;2024-02-23T12:40:57;19.05;;;9.40;;
58752;SDS011;44525;46.052;13.610;2024-02-23T12:43:24;21.52;;;13.15;;
58752;SDS011;44525;46.052;13.610;2024-02-23T12:45:53;32.03;;;17.15;;
58752;SDS011;44525;46.052;13.610;2024-02-23T12:48:22;19.30;;;11.57;;
58752;SDS011;44525;46.052;13.610;2024-02-23T12:50:48;18.05;;;8.65;;
58752;SDS011;44525;46.052;13.610;2024-02-23T12:53:29;22.77;;;11.55;;
58752;SDS011;44525;46.052;13.610;2024-02-23T12:58:28;30.13;;;16.88;;
58752;SDS011;44525;46.052;13.610;2024-02-23T13:00:53;19.65;;;11.65;;
58752;SDS011;44525;46.052;13.610;2024-02-23T13:03:19;18.00;;;9.50;;
58752;SDS011;44525;46.052;13.610;2024-02-23T13:05:44;13.68;;;8.25;;
58752;SDS011;44525;46.052;13.610;2024-02-23T13:08:10;21.27;;;9.82;;
58752;SDS011;44525;46.052;13.610;2024-02-23T13:10:35;23.02;;;11.77;;
58752;SDS011;44525;46.052;13.610;2024-02-23T13:13:01;24.42;;;11.90;;
58752;SDS011;44525;46.052;13.610;2024-02-23T13:15:26;32.17;;;20.52;;
58752;SDS011;44525;46.052;13.610;2024-02-23T13:17:51;27.48;;;16.85;;
58752;SDS011;44525;46.052;13.610;2024-02-23T13:20:17;15.75;;;8.35;;
58752;SDS011;44525;46.052;13.610;2024-02-23T13:22:42;14.10;;;8.88;;
58752;SDS011;44525;46.052;13.610;2024-02-23T13:25:08;15.20;;;8.55;;
58752;SDS011;44525;46.052;13.610;2024-02-23T13:27:33;15.35;;;7.53;;
58752;SDS011;44525;46.052;13.610;2024-02-23T13:29:58;14.60;;;7.25;;
58752;SDS011;44525;46.052;13.610;2024-02-23T13:32:24;17.27;;;7.85;;
58752;SDS011;44525;46.052;13.610;2024-02-23T13:34:49;16.35;;;8.88;;
58752;SDS011;44525;46.052;13.610;2024-02-23T13:37:17;14.38;;;7.20;;
58752;SDS011;44525;46.052;13.610;2024-02-23T13:39:43;13.32;;;6.35;;
58752;SDS011;44525;46.052;13.610;2024-02-23T13:42:08;10.32;;;6.50;;
58752;SDS011;44525;46.052;13.610;2024-02-23T13:44:35;14.30;;;6.95;;
58752;SDS011;44525;46.052;13.610;2024-02-23T13:47:00;14.43;;;7.07;;
58752;SDS011;44525;46.052;13.610;2024-02-23T13:49:26;12.45;;;6.35;;
58752;SDS011;44525;46.052;13.610;2024-02-23T13:51:51;14.95;;;6.40;;
58752;SDS011;44525;46.052;13.610;2024-02-23T13:54:17;14.77;;;6.90;;
58752;SDS011;44525;46.052;13.610;2024-02-23T13:56:42;14.93;;;8.05;;
58752;SDS011;44525;46.052;13.610;2024-02-23T13:59:07;18.13;;;7.15;;
58752;SDS011;44525;46.052;13.610;2024-02-23T14:01:33;12.13;;;7.03;;
58752;SDS011;44525;46.052;13.610;2024-02-23T14:03:58;14.32;;;7.00;;
58752;SDS011;44525;46.052;13.610;2024-02-23T14:06:24;13.90;;;6.88;;
58752;SDS011;44525;46.052;13.610;2024-02-23T14:08:49;23.45;;;13.73;;
58752;SDS011;44525;46.052;13.610;2024-02-23T14:11:14;13.63;;;8.27;;
58752;SDS011;44525;46.052;13.610;2024-02-23T14:13:40;16.50;;;8.15;;
58752;SDS011;44525;46.052;13.610;2024-02-23T14:16:05;13.27;;;7.65;;
58752;SDS011;44525;46.052;13.610;2024-02-23T14:18:32;14.60;;;7.55;;